Time,TemperatureF,DewpointF,PressureIn,WindDirection,WindDirectionDegrees,WindSpeedMPH,WindSpeedGustMPH,Humidity,HourlyPrecipIn,Conditions,Clouds,dailyrainin,SolarRadiationWatts/m^2,SoftwareType,DateUTC
2013-02-19 00:01:00,29.0,28.0,-100.00,NNE,16,1.0,2.0,93,-99.99,,,0.00,0.000000,,2013-02-19 07:01:00,
2013-02-19 00:11:00,29.0,28.0,-100.00,NNE,16,1.0,2.0,93,-99.99,,,0.00,0.000000,,2013-02-19 07:11:00,
2013-02-19 00:42:00,27.0,27.0,-100.00,WNW,299,1.0,3.0,97,-99.99,,,0.00,0.000000,,2013-02-19 07:42:00,
2013-02-19 00:52:00,27.0,27.0,-100.00,WNW,299,1.0,3.0,97,-99.99,,,0.00,0.000000,,2013-02-19 07:52:00,
2013-02-19 01:01:00,27.0,27.0,-100.00,WNW,299,1.0,3.0,97,-99.99,,,0.00,0.000000,,2013-02-19 08:01:00,
2013-02-19 01:11:00,27.0,27.0,-100.00,WNW,299,1.0,3.0,97,-99.99,,,0.00,0.000000,,2013-02-19 08:11:00,
2013-02-19 01:42:00,28.0,26.0,-100.00,NNW,332,2.0,4.0,91,-99.99,,,0.00,0.000000,,2013-02-19 08:42:00,
2013-02-19 01:52:00,28.0,26.0,-100.00,NNW,332,2.0,4.0,91,-99.99,,,0.00,0.000000,,2013-02-19 08:52:00,
2013-02-19 02:01:00,28.0,26.0,-100.00,NNW,332,2.0,4.0,91,-99.99,,,0.00,0.000000,,2013-02-19 09:01:00,
2013-02-19 02:11:00,28.0,26.0,-100.00,NNW,332,2.0,4.0,91,-99.99,,,0.00,0.000000,,2013-02-19 09:11:00,
2013-02-19 02:41:00,28.0,26.0,-100.00,NW,306,3.0,5.0,92,-99.99,,,0.00,0.000000,,2013-02-19 09:41:00,
2013-02-19 02:53:00,28.0,26.0,-100.00,NW,306,3.0,5.0,92,-99.99,,,0.00,0.000000,,2013-02-19 09:53:00,
2013-02-19 03:01:00,28.0,26.0,-100.00,NW,306,3.0,5.0,92,-99.99,,,0.00,0.000000,,2013-02-19 10:01:00,
2013-02-19 03:11:00,28.0,26.0,-100.00,NW,306,3.0,5.0,92,-99.99,,,0.00,0.000000,,2013-02-19 10:11:00,
2013-02-19 03:41:00,28.0,26.0,-100.00,NW,326,1.0,3.0,90,-99.99,,,0.00,0.000000,,2013-02-19 10:41:00,
2013-02-19 03:52:00,28.0,26.0,-100.00,NW,326,1.0,3.0,90,-99.99,,,0.00,0.000000,,2013-02-19 10:52:00,
2013-02-19 04:01:00,28.0,26.0,-100.00,NW,326,1.0,3.0,90,-99.99,,,0.00,0.000000,,2013-02-19 11:01:00,
2013-02-19 04:11:00,28.0,26.0,-100.00,NW,326,1.0,3.0,90,-99.99,,,0.00,0.000000,,2013-02-19 11:11:00,
2013-02-19 04:42:00,28.0,26.0,-100.00,NW,318,3.0,5.0,92,-99.99,,,0.00,0.000000,,2013-02-19 11:42:00,
2013-02-19 04:52:00,28.0,26.0,-100.00,NW,318,3.0,5.0,92,-99.99,,,0.00,0.000000,,2013-02-19 11:52:00,
2013-02-19 05:01:00,28.0,26.0,-100.00,NW,318,3.0,5.0,92,-99.99,,,0.00,0.000000,,2013-02-19 12:01:00,
2013-02-19 05:12:00,28.0,26.0,-100.00,NW,318,3.0,5.0,92,-99.99,,,0.00,0.000000,,2013-02-19 12:12:00,
2013-02-19 05:42:00,26.0,26.0,-100.00,SSW,209,0.0,1.0,99,-99.99,,,0.00,0.000000,,2013-02-19 12:42:00,
2013-02-19 05:52:00,26.0,26.0,-100.00,SSW,209,0.0,1.0,99,-99.99,,,0.00,0.000000,,2013-02-19 12:52:00,
2013-02-19 06:02:00,26.0,26.0,-100.00,SSW,209,0.0,1.0,99,-99.99,,,0.00,0.000000,,2013-02-19 13:02:00,
2013-02-19 06:11:00,26.0,26.0,-100.00,SSW,209,0.0,1.0,99,-99.99,,,0.00,0.000000,,2013-02-19 13:11:00,
2013-02-19 06:41:00,27.0,25.0,-100.00,North,5,2.0,3.0,93,-99.99,,,0.00,0.000000,,2013-02-19 13:41:00,
2013-02-19 06:52:00,27.0,25.0,-100.00,North,5,2.0,3.0,93,-99.99,,,0.00,0.000000,,2013-02-19 13:52:00,
2013-02-19 07:01:00,27.0,25.0,-100.00,North,5,2.0,3.0,93,-99.99,,,0.00,0.000000,,2013-02-19 14:01:00,
2013-02-19 07:11:00,27.0,25.0,-100.00,North,5,2.0,3.0,93,-99.99,,,0.00,0.000000,,2013-02-19 14:11:00,
2013-02-19 07:42:00,26.0,25.0,-100.00,NNW,331,3.0,5.0,93,-99.99,,,0.00,0.120000,,2013-02-19 14:42:00,
2013-02-19 07:52:00,26.0,25.0,-100.00,NNW,331,3.0,5.0,93,-99.99,,,0.00,0.120000,,2013-02-19 14:52:00,
2013-02-19 08:01:00,26.0,25.0,-100.00,NNW,331,3.0,5.0,93,-99.99,,,0.00,0.120000,,2013-02-19 15:01:00,
2013-02-19 08:11:00,26.0,25.0,-100.00,NNW,331,3.0,5.0,93,-99.99,,,0.00,0.120000,,2013-02-19 15:11:00,
2013-02-19 08:42:00,27.0,25.0,-100.00,NNW,339,3.0,4.0,92,-99.99,,,0.00,16.270000,,2013-02-19 15:42:00,
2013-02-19 08:52:00,27.0,25.0,-100.00,NNW,339,3.0,4.0,92,-99.99,,,0.00,16.270000,,2013-02-19 15:52:00,
2013-02-19 09:01:00,27.0,25.0,-100.00,NNW,339,3.0,4.0,92,-99.99,,,0.00,16.270000,,2013-02-19 16:01:00,
2013-02-19 09:11:00,27.0,25.0,-100.00,NNW,339,3.0,4.0,92,-99.99,,,0.00,16.270000,,2013-02-19 16:11:00,
2013-02-19 11:11:00,30.0,24.0,-100.00,NNW,332,8.0,13.0,78,-99.99,,,0.00,214.889999,,2013-02-19 18:11:00,
2013-02-19 11:41:00,33.0,25.0,-100.00,NW,314,8.0,11.0,70,-99.99,,,0.00,389.570007,,2013-02-19 18:41:00,
2013-02-19 11:52:00,33.0,25.0,-100.00,NW,314,8.0,11.0,70,-99.99,,,0.00,389.570007,,2013-02-19 18:52:00,
2013-02-19 12:01:00,33.0,25.0,-100.00,NW,314,8.0,11.0,70,-99.99,,,0.00,389.570007,,2013-02-19 19:01:00,
2013-02-19 12:11:00,33.0,25.0,-100.00,NW,314,8.0,11.0,70,-99.99,,,0.00,389.570007,,2013-02-19 19:11:00,
2013-02-19 12:41:00,36.0,25.0,-100.00,NW,320,6.0,11.0,63,-99.99,,,0.00,520.080017,,2013-02-19 19:41:00,
2013-02-19 12:52:00,36.0,25.0,-100.00,NW,320,6.0,11.0,63,-99.99,,,0.00,520.080017,,2013-02-19 19:52:00,
2013-02-19 13:01:00,36.0,25.0,-100.00,NW,320,6.0,11.0,63,-99.99,,,0.00,520.080017,,2013-02-19 20:01:00,
2013-02-19 13:11:00,36.0,25.0,-100.00,NW,320,6.0,11.0,63,-99.99,,,0.00,520.080017,,2013-02-19 20:11:00,
2013-02-19 13:41:00,37.0,24.0,-100.00,NW,322,6.0,9.0,59,-99.99,,,0.00,292.640015,,2013-02-19 20:41:00,
2013-02-19 13:52:00,37.0,24.0,-100.00,NW,322,6.0,9.0,59,-99.99,,,0.00,292.640015,,2013-02-19 20:52:00,
2013-02-19 14:01:00,37.0,24.0,-100.00,NW,322,6.0,9.0,59,-99.99,,,0.00,292.640015,,2013-02-19 21:01:00,
2013-02-19 14:11:00,37.0,24.0,-100.00,NW,322,6.0,9.0,59,-99.99,,,0.00,292.640015,,2013-02-19 21:11:00,
2013-02-19 14:42:00,38.0,23.0,-100.00,WNW,294,3.0,5.0,53,-99.99,,,0.00,352.149994,,2013-02-19 21:42:00,
2013-02-19 14:52:00,38.0,23.0,-100.00,WNW,294,3.0,5.0,53,-99.99,,,0.00,352.149994,,2013-02-19 21:52:00,
2013-02-19 15:01:00,38.0,23.0,-100.00,WNW,294,3.0,5.0,53,-99.99,,,0.00,352.149994,,2013-02-19 22:01:00,
2013-02-19 15:11:00,38.0,23.0,-100.00,WNW,294,3.0,5.0,53,-99.99,,,0.00,352.149994,,2013-02-19 22:11:00,
2013-02-19 15:41:00,39.0,23.0,-100.00,SSW,211,2.0,4.0,53,-99.99,,,-99.99,158.179993,,2013-02-19 22:41:00,
2013-02-19 15:52:00,39.0,23.0,-100.00,SSW,211,2.0,4.0,53,-99.99,,,-99.99,158.179993,,2013-02-19 22:52:00,
2013-02-19 16:01:00,39.0,23.0,-100.00,SSW,211,2.0,4.0,53,-99.99,,,-99.99,158.179993,,2013-02-19 23:01:00,
2013-02-19 16:11:00,39.0,23.0,-100.00,SSW,211,2.0,4.0,53,-99.99,,,-99.99,158.179993,,2013-02-19 23:11:00,
2013-02-19 16:41:00,38.0,24.0,-100.00,South,181,3.0,6.0,57,-99.99,,,0.00,62.410000,,2013-02-19 23:41:00,
2013-02-19 16:52:00,38.0,24.0,-100.00,South,181,3.0,6.0,57,-99.99,,,0.00,62.410000,,2013-02-19 23:52:00,
2013-02-19 17:01:00,38.0,24.0,-100.00,South,181,3.0,6.0,57,-99.99,,,0.00,62.410000,,2013-02-20 00:01:00,
2013-02-19 17:11:00,38.0,24.0,-100.00,South,181,3.0,6.0,57,-99.99,,,0.00,62.410000,,2013-02-20 00:11:00,
2013-02-19 17:41:00,35.0,29.0,-100.00,SSE,156,7.0,12.0,77,-99.99,,,0.00,25.570000,,2013-02-20 00:41:00,
2013-02-19 17:52:00,35.0,29.0,-100.00,SSE,156,7.0,12.0,77,-99.99,,,0.00,25.570000,,2013-02-20 00:52:00,
2013-02-19 18:02:00,35.0,29.0,-100.00,SSE,156,7.0,12.0,77,-99.99,,,0.00,25.570000,,2013-02-20 01:02:00,
2013-02-19 18:11:00,35.0,29.0,-100.00,SSE,156,7.0,12.0,77,-99.99,,,0.00,25.570000,,2013-02-20 01:11:00,
2013-02-19 18:42:00,34.0,31.0,-100.00,SE,126,3.0,4.0,89,-99.99,,,0.00,1.510000,,2013-02-20 01:42:00,
2013-02-19 18:52:00,34.0,31.0,-100.00,SE,126,3.0,4.0,89,-99.99,,,0.00,1.510000,,2013-02-20 01:52:00,
2013-02-19 19:01:00,34.0,31.0,-100.00,SE,126,3.0,4.0,89,-99.99,,,0.00,1.510000,,2013-02-20 02:01:00,
2013-02-19 19:11:00,34.0,31.0,-100.00,SE,126,3.0,4.0,89,-99.99,,,0.00,1.510000,,2013-02-20 02:11:00,
2013-02-19 19:42:00,32.0,32.0,-100.00,ENE,73,3.0,3.0,100,-99.99,,,0.00,0.000000,,2013-02-20 02:42:00,
2013-02-19 19:52:00,32.0,32.0,-100.00,ENE,73,3.0,3.0,100,-99.99,,,0.00,0.000000,,2013-02-20 02:52:00,
2013-02-19 20:01:00,32.0,32.0,-100.00,ENE,73,3.0,3.0,100,-99.99,,,0.00,0.000000,,2013-02-20 03:01:00,
2013-02-19 20:12:00,32.0,32.0,-100.00,ENE,73,3.0,3.0,100,-99.99,,,0.00,0.000000,,2013-02-20 03:12:00,
2013-02-19 20:41:00,30.0,30.0,-100.00,North,0,2.0,4.0,100,-99.99,,,0.00,0.000000,,2013-02-20 03:41:00,
2013-02-19 20:52:00,30.0,30.0,-100.00,North,0,2.0,4.0,100,-99.99,,,0.00,0.000000,,2013-02-20 03:52:00,
2013-02-19 21:01:00,30.0,30.0,-100.00,North,0,2.0,4.0,100,-99.99,,,0.00,0.000000,,2013-02-20 04:01:00,
2013-02-19 21:11:00,30.0,30.0,-100.00,North,0,2.0,4.0,100,-99.99,,,0.00,0.000000,,2013-02-20 04:11:00,
2013-02-19 21:41:00,30.0,30.0,-100.00,NNE,12,3.0,4.0,100,-99.99,,,0.00,0.000000,,2013-02-20 04:41:00,
2013-02-19 21:52:00,30.0,30.0,-100.00,NNE,12,3.0,4.0,100,-99.99,,,0.00,0.000000,,2013-02-20 04:52:00,
2013-02-19 22:02:00,30.0,30.0,-100.00,NNE,12,3.0,4.0,100,-99.99,,,0.00,0.000000,,2013-02-20 05:02:00,
2013-02-19 22:12:00,30.0,30.0,-100.00,NNE,12,3.0,4.0,100,-99.99,,,0.00,0.000000,,2013-02-20 05:12:00,
2013-02-19 22:43:00,30.0,30.0,-100.00,NW,324,2.0,3.0,100,-99.99,,,0.00,0.000000,,2013-02-20 05:43:00,
2013-02-19 22:52:00,30.0,30.0,-100.00,NW,324,2.0,3.0,100,-99.99,,,0.00,0.000000,,2013-02-20 05:52:00,
2013-02-19 23:01:00,30.0,30.0,-100.00,NW,324,2.0,3.0,100,-99.99,,,0.00,0.000000,,2013-02-20 06:01:00,
2013-02-19 23:11:00,30.0,30.0,-100.00,NW,324,2.0,3.0,100,-99.99,,,0.00,0.000000,,2013-02-20 06:11:00,
2013-02-19 23:42:00,31.0,31.0,-100.00,WNW,299,2.0,3.0,100,-99.99,,,0.00,0.000000,,2013-02-20 06:42:00,
2013-02-19 23:52:00,31.0,31.0,-100.00,WNW,299,2.0,3.0,100,-99.99,,,0.00,0.000000,,2013-02-20 06:52:00,